sensor_id;sensor_type;location;lat;lon;timestamp;pressure;altitude;pressure_sealevel;temperature;humidity
70916;BME280;58557;50.982;-3.222;2023-04-25T00:01:20;100902.79;;;12.50;46.31
70916;BME280;58557;50.982;-3.222;2023-04-25T00:03:45;100906.59;;;11.21;47.49
70916;BME280;58557;50.982;-3.222;2023-04-25T00:06:10;100911.35;;;11.64;46.80
70916;BME280;58557;50.982;-3.222;2023-04-25T00:08:35;100911.62;;;11.51;46.57
70916;BME280;58557;50.982;-3.222;2023-04-25T00:11:01;100907.43;;;10.57;49.10
70916;BME280;58557;50.982;-3.222;2023-04-25T00:13:26;100908.27;;;11.02;49.25
70916;BME280;58557;50.982;-3.222;2023-04-25T00:15:52;100908.58;;;10.55;49.65
70916;BME280;58557;50.982;-3.222;2023-04-25T00:18:17;100904.86;;;10.71;49.86
70916;BME280;58557;50.982;-3.222;2023-04-25T00:20:42;100908.21;;;10.69;50.79
70916;BME280;58557;50.982;-3.222;2023-04-25T00:23:08;100908.21;;;9.89;52.26
70916;BME280;58557;50.982;-3.222;2023-04-25T00:25:33;100912.82;;;10.51;51.66
70916;BME280;58557;50.982;-3.222;2023-04-25T00:27:58;100917.07;;;11.01;50.11
70916;BME280;58557;50.982;-3.222;2023-04-25T00:30:24;100917.13;;;11.24;49.91
70916;BME280;58557;50.982;-3.222;2023-04-25T00:32:49;100917.05;;;10.86;50.39
70916;BME280;58557;50.982;-3.222;2023-04-25T00:35:15;100919.43;;;11.22;49.33
70916;BME280;58557;50.982;-3.222;2023-04-25T00:37:40;100918.60;;;11.44;49.17
70916;BME280;58557;50.982;-3.222;2023-04-25T00:40:07;100919.59;;;11.31;48.94
70916;BME280;58557;50.982;-3.222;2023-04-25T00:42:31;100920.23;;;11.65;48.10
70916;BME280;58557;50.982;-3.222;2023-04-25T00:44:57;100915.77;;;10.91;49.69
70916;BME280;58557;50.982;-3.222;2023-04-25T00:47:21;100915.73;;;10.74;50.91
70916;BME280;58557;50.982;-3.222;2023-04-25T00:49:47;100916.12;;;10.91;50.33
70916;BME280;58557;50.982;-3.222;2023-04-25T00:52:13;100919.55;;;11.17;49.60
70916;BME280;58557;50.982;-3.222;2023-04-25T00:54:38;100918.10;;;11.25;48.52
70916;BME280;58557;50.982;-3.222;2023-04-25T00:57:04;100920.22;;;10.67;49.29
70916;BME280;58557;50.982;-3.222;2023-04-25T00:59:30;100922.58;;;11.67;47.58
70916;BME280;58557;50.982;-3.222;2023-04-25T01:01:55;100925.96;;;11.48;48.66
70916;BME280;58557;50.982;-3.222;2023-04-25T01:04:21;100928.96;;;11.75;47.47
70916;BME280;58557;50.982;-3.222;2023-04-25T01:06:47;100932.59;;;11.91;47.15
70916;BME280;58557;50.982;-3.222;2023-04-25T01:09:12;100936.65;;;12.01;47.74
70916;BME280;58557;50.982;-3.222;2023-04-25T01:11:37;100935.74;;;12.30;47.06
70916;BME280;58557;50.982;-3.222;2023-04-25T01:14:03;100936.89;;;12.13;46.85
70916;BME280;58557;50.982;-3.222;2023-04-25T01:16:29;100938.53;;;12.53;47.10
70916;BME280;58557;50.982;-3.222;2023-04-25T01:18:54;100938.52;;;12.74;46.14
70916;BME280;58557;50.982;-3.222;2023-04-25T01:21:19;100936.44;;;12.52;46.14
70916;BME280;58557;50.982;-3.222;2023-04-25T01:23:45;100937.98;;;12.81;45.99
70916;BME280;58557;50.982;-3.222;2023-04-25T01:26:11;100943.88;;;13.03;45.23
70916;BME280;58557;50.982;-3.222;2023-04-25T01:28:35;100944.22;;;12.75;45.68
70916;BME280;58557;50.982;-3.222;2023-04-25T01:31:01;100943.12;;;13.43;45.16
70916;BME280;58557;50.982;-3.222;2023-04-25T01:33:25;100943.41;;;14.11;42.26
70916;BME280;58557;50.982;-3.222;2023-04-25T01:35:51;100944.10;;;14.09;41.85
70916;BME280;58557;50.982;-3.222;2023-04-25T01:38:16;100948.41;;;13.42;43.01
70916;BME280;58557;50.982;-3.222;2023-04-25T01:40:45;100949.64;;;13.11;43.43
70916;BME280;58557;50.982;-3.222;2023-04-25T01:43:07;100952.25;;;12.70;44.90
70916;BME280;58557;50.982;-3.222;2023-04-25T01:45:32;100958.06;;;12.91;44.80
70916;BME280;58557;50.982;-3.222;2023-04-25T01:47:57;100960.78;;;13.05;44.80
70916;BME280;58557;50.982;-3.222;2023-04-25T01:50:22;100956.19;;;12.79;44.81
70916;BME280;58557;50.982;-3.222;2023-04-25T01:52:48;100960.47;;;13.30;44.94
70916;BME280;58557;50.982;-3.222;2023-04-25T01:55:13;100966.02;;;12.64;45.28
70916;BME280;58557;50.982;-3.222;2023-04-25T01:57:39;100965.05;;;13.62;43.66
70916;BME280;58557;50.982;-3.222;2023-04-25T02:00:07;100969.52;;;13.51;42.96
70916;BME280;58557;50.982;-3.222;2023-04-25T02:02:30;100975.86;;;13.85;43.09
70916;BME280;58557;50.982;-3.222;2023-04-25T02:04:56;100979.31;;;13.23;44.93
70916;BME280;58557;50.982;-3.222;2023-04-25T02:07:21;100976.85;;;13.01;44.49
70916;BME280;58557;50.982;-3.222;2023-04-25T02:09:47;100975.60;;;13.32;43.42
70916;BME280;58557;50.982;-3.222;2023-04-25T02:12:12;100969.45;;;12.71;46.00
70916;BME280;58557;50.982;-3.222;2023-04-25T02:14:38;100967.74;;;12.70;44.82
70916;BME280;58557;50.982;-3.222;2023-04-25T02:17:03;100970.02;;;13.09;44.59
70916;BME280;58557;50.982;-3.222;2023-04-25T02:19:29;100970.09;;;12.94;44.01
70916;BME280;58557;50.982;-3.222;2023-04-25T02:21:55;100970.27;;;12.49;43.98
70916;BME280;58557;50.982;-3.222;2023-04-25T02:24:20;100972.67;;;12.81;44.84
70916;BME280;58557;50.982;-3.222;2023-04-25T02:26:45;100973.32;;;12.96;45.11
70916;BME280;58557;50.982;-3.222;2023-04-25T02:29:11;100974.09;;;13.19;44.36
70916;BME280;58557;50.982;-3.222;2023-04-25T02:31:36;100973.64;;;12.88;43.87
70916;BME280;58557;50.982;-3.222;2023-04-25T02:34:02;100976.87;;;12.73;44.68
70916;BME280;58557;50.982;-3.222;2023-04-25T02:36:28;100982.73;;;12.66;45.08
70916;BME280;58557;50.982;-3.222;2023-04-25T02:38:54;100983.75;;;12.66;45.87
70916;BME280;58557;50.982;-3.222;2023-04-25T02:41:19;100985.69;;;13.45;44.48
70916;BME280;58557;50.982;-3.222;2023-04-25T02:43:45;100987.34;;;13.65;44.32
70916;BME280;58557;50.982;-3.222;2023-04-25T02:46:10;100984.15;;;13.14;44.15
70916;BME280;58557;50.982;-3.222;2023-04-25T02:48:36;100981.35;;;12.91;44.32
70916;BME280;58557;50.982;-3.222;2023-04-25T02:51:01;100978.51;;;13.25;44.95
70916;BME280;58557;50.982;-3.222;2023-04-25T02:53:27;100980.02;;;12.30;45.11
70916;BME280;58557;50.982;-3.222;2023-04-25T02:55:52;100980.26;;;12.56;46.25
70916;BME280;58557;50.982;-3.222;2023-04-25T02:58:18;100981.06;;;12.28;45.89
70916;BME280;58557;50.982;-3.222;2023-04-25T03:00:44;100984.04;;;12.59;46.14
70916;BME280;58557;50.982;-3.222;2023-04-25T03:03:09;100985.85;;;12.36;47.18
70916;BME280;58557;50.982;-3.222;2023-04-25T03:05:35;100990.13;;;11.94;46.77
70916;BME280;58557;50.982;-3.222;2023-04-25T03:08:01;100991.66;;;12.55;46.81
70916;BME280;58557;50.982;-3.222;2023-04-25T03:10:26;100992.51;;;12.62;45.50
70916;BME280;58557;50.982;-3.222;2023-04-25T03:12:52;100996.78;;;12.54;45.34
70916;BME280;58557;50.982;-3.222;2023-04-25T03:15:17;100996.11;;;12.19;45.94
70916;BME280;58557;50.982;-3.222;2023-04-25T03:17:43;101004.64;;;11.99;46.62
70916;BME280;58557;50.982;-3.222;2023-04-25T03:20:10;101005.72;;;11.42;49.76
70916;BME280;58557;50.982;-3.222;2023-04-25T03:22:34;101007.73;;;11.83;48.51
70916;BME280;58557;50.982;-3.222;2023-04-25T03:25:00;101008.16;;;12.53;48.32
70916;BME280;58557;50.982;-3.222;2023-04-25T03:27:25;101007.60;;;13.14;46.11
70916;BME280;58557;50.982;-3.222;2023-04-25T03:29:50;101007.52;;;13.66;44.30
70916;BME280;58557;50.982;-3.222;2023-04-25T03:32:15;101007.53;;;13.01;45.58
70916;BME280;58557;50.982;-3.222;2023-04-25T03:34:40;101009.53;;;13.22;45.02
70916;BME280;58557;50.982;-3.222;2023-04-25T03:37:06;101008.90;;;12.58;44.42
70916;BME280;58557;50.982;-3.222;2023-04-25T03:39:31;101006.86;;;12.20;45.93
70916;BME280;58557;50.982;-3.222;2023-04-25T03:41:56;101008.61;;;12.33;45.40
70916;BME280;58557;50.982;-3.222;2023-04-25T03:44:22;101012.38;;;13.18;44.89
70916;BME280;58557;50.982;-3.222;2023-04-25T03:46:47;101011.94;;;12.86;43.33
70916;BME280;58557;50.982;-3.222;2023-04-25T03:49:13;101012.89;;;13.22;43.57
70916;BME280;58557;50.982;-3.222;2023-04-25T03:51:39;101013.94;;;13.33;43.77
70916;BME280;58557;50.982;-3.222;2023-04-25T03:54:04;101013.27;;;13.11;43.42
70916;BME280;58557;50.982;-3.222;2023-04-25T03:56:30;101013.07;;;13.06;43.00
70916;BME280;58557;50.982;-3.222;2023-04-25T03:58:55;101008.72;;;12.78;45.14
70916;BME280;58557;50.982;-3.222;2023-04-25T04:01:21;101008.06;;;12.99;44.38
70916;BME280;58557;50.982;-3.222;2023-04-25T04:03:46;101002.24;;;12.21;45.65
70916;BME280;58557;50.982;-3.222;2023-04-25T04:06:11;101001.36;;;11.94;46.97
70916;BME280;58557;50.982;-3.222;2023-04-25T04:08:37;100999.29;;;11.71;47.15
70916;BME280;58557;50.982;-3.222;2023-04-25T04:11:02;101004.44;;;11.30;49.15
70916;BME280;58557;50.982;-3.222;2023-04-25T04:13:28;101008.14;;;11.37;48.93
70916;BME280;58557;50.982;-3.222;2023-04-25T04:15:53;101005.09;;;10.90;48.49
70916;BME280;58557;50.982;-3.222;2023-04-25T04:18:18;101006.37;;;11.27;49.73
70916;BME280;58557;50.982;-3.222;2023-04-25T04:20:44;101007.74;;;11.25;49.27
70916;BME280;58557;50.982;-3.222;2023-04-25T04:23:09;101008.29;;;12.02;47.53
70916;BME280;58557;50.982;-3.222;2023-04-25T04:25:35;101011.01;;;12.11;45.78
70916;BME280;58557;50.982;-3.222;2023-04-25T04:28:00;101012.43;;;11.81;45.79
70916;BME280;58557;50.982;-3.222;2023-04-25T04:30:26;101014.59;;;11.91;46.73
70916;BME280;58557;50.982;-3.222;2023-04-25T04:32:51;101015.60;;;11.88;46.55
70916;BME280;58557;50.982;-3.222;2023-04-25T04:35:17;101016.34;;;12.72;45.68
70916;BME280;58557;50.982;-3.222;2023-04-25T04:37:42;101020.79;;;11.66;46.49
70916;BME280;58557;50.982;-3.222;2023-04-25T04:40:08;101027.91;;;11.84;46.14
70916;BME280;58557;50.982;-3.222;2023-04-25T04:42:33;101032.77;;;12.84;45.92
70916;BME280;58557;50.982;-3.222;2023-04-25T04:44:59;101035.71;;;12.42;46.14
70916;BME280;58557;50.982;-3.222;2023-04-25T04:47:24;101034.05;;;12.22;46.25
70916;BME280;58557;50.982;-3.222;2023-04-25T04:49:49;101036.97;;;12.17;46.84
70916;BME280;58557;50.982;-3.222;2023-04-25T04:52:15;101038.99;;;12.44;47.49
70916;BME280;58557;50.982;-3.222;2023-04-25T04:54:41;101044.26;;;11.47;46.93
70916;BME280;58557;50.982;-3.222;2023-04-25T04:57:06;101054.67;;;11.30;48.39
70916;BME280;58557;50.982;-3.222;2023-04-25T04:59:31;101057.72;;;11.07;48.74
70916;BME280;58557;50.982;-3.222;2023-04-25T05:01:56;101059.47;;;11.39;49.31
70916;BME280;58557;50.982;-3.222;2023-04-25T05:04:22;101065.11;;;11.87;48.32
70916;BME280;58557;50.982;-3.222;2023-04-25T05:06:48;101067.34;;;11.79;47.67
70916;BME280;58557;50.982;-3.222;2023-04-25T05:09:13;101069.94;;;12.02;47.18
70916;BME280;58557;50.982;-3.222;2023-04-25T05:11:38;101071.03;;;11.60;47.15
70916;BME280;58557;50.982;-3.222;2023-04-25T05:14:04;101069.92;;;11.96;47.19
70916;BME280;58557;50.982;-3.222;2023-04-25T05:16:29;101075.11;;;11.77;47.42
70916;BME280;58557;50.982;-3.222;2023-04-25T05:18:54;101077.70;;;12.40;46.61
70916;BME280;58557;50.982;-3.222;2023-04-25T05:21:20;101077.44;;;13.04;44.11
70916;BME280;58557;50.982;-3.222;2023-04-25T05:23:45;101080.63;;;13.12;43.94
70916;BME280;58557;50.982;-3.222;2023-04-25T05:26:11;101083.66;;;12.65;45.06
70916;BME280;58557;50.982;-3.222;2023-04-25T05:28:36;101088.38;;;11.89;45.75
70916;BME280;58557;50.982;-3.222;2023-04-25T05:31:01;101092.68;;;12.03;45.81
70916;BME280;58557;50.982;-3.222;2023-04-25T05:33:27;101095.87;;;11.94;45.65
70916;BME280;58557;50.982;-3.222;2023-04-25T05:35:52;101096.49;;;11.71;46.30
70916;BME280;58557;50.982;-3.222;2023-04-25T05:38:18;101095.62;;;12.21;47.12
70916;BME280;58557;50.982;-3.222;2023-04-25T05:40:44;101101.40;;;11.86;46.24
70916;BME280;58557;50.982;-3.222;2023-04-25T05:43:09;101104.30;;;11.90;46.57
70916;BME280;58557;50.982;-3.222;2023-04-25T05:45:34;101106.30;;;11.90;46.08
70916;BME280;58557;50.982;-3.222;2023-04-25T05:48:00;101109.67;;;12.04;46.21
70916;BME280;58557;50.982;-3.222;2023-04-25T05:50:25;101114.78;;;11.95;46.17
70916;BME280;58557;50.982;-3.222;2023-04-25T05:52:50;101120.60;;;12.46;46.26
70916;BME280;58557;50.982;-3.222;2023-04-25T05:55:16;101123.33;;;11.91;46.39
70916;BME280;58557;50.982;-3.222;2023-04-25T05:57:41;101124.10;;;13.19;44.43
70916;BME280;58557;50.982;-3.222;2023-04-25T06:00:08;101127.93;;;12.43;45.61
70916;BME280;58557;50.982;-3.222;2023-04-25T06:02:32;101126.29;;;13.16;43.68
70916;BME280;58557;50.982;-3.222;2023-04-25T06:04:58;101124.57;;;13.35;43.40
70916;BME280;58557;50.982;-3.222;2023-04-25T06:07:24;101127.19;;;13.68;42.94
70916;BME280;58557;50.982;-3.222;2023-04-25T06:09:50;101128.91;;;13.04;43.60
70916;BME280;58557;50.982;-3.222;2023-04-25T06:12:16;101135.73;;;13.10;44.77
70916;BME280;58557;50.982;-3.222;2023-04-25T06:14:42;101138.62;;;12.91;43.33
70916;BME280;58557;50.982;-3.222;2023-04-25T06:17:07;101140.70;;;12.74;44.16
70916;BME280;58557;50.982;-3.222;2023-04-25T06:19:32;101141.56;;;12.05;45.80
70916;BME280;58557;50.982;-3.222;2023-04-25T06:21:57;101144.68;;;12.31;44.93
70916;BME280;58557;50.982;-3.222;2023-04-25T06:24:22;101140.28;;;11.14;46.13
70916;BME280;58557;50.982;-3.222;2023-04-25T06:26:47;101141.45;;;10.58;48.71
70916;BME280;58557;50.982;-3.222;2023-04-25T06:29:12;101143.25;;;11.09;48.65
70916;BME280;58557;50.982;-3.222;2023-04-25T06:31:37;101140.74;;;10.74;47.88
70916;BME280;58557;50.982;-3.222;2023-04-25T06:34:03;101142.07;;;9.95;47.65
70916;BME280;58557;50.982;-3.222;2023-04-25T06:36:28;101137.12;;;9.40;48.65
70916;BME280;58557;50.982;-3.222;2023-04-25T06:38:54;101135.90;;;8.69;46.76
70916;BME280;58557;50.982;-3.222;2023-04-25T06:41:19;101136.27;;;8.23;48.12
70916;BME280;58557;50.982;-3.222;2023-04-25T06:43:44;101137.13;;;7.05;49.59
70916;BME280;58557;50.982;-3.222;2023-04-25T06:46:09;101137.82;;;7.51;52.29
70916;BME280;58557;50.982;-3.222;2023-04-25T06:48:34;101135.67;;;7.73;49.36
70916;BME280;58557;50.982;-3.222;2023-04-25T06:51:00;101137.95;;;7.79;49.30
70916;BME280;58557;50.982;-3.222;2023-04-25T06:53:25;101136.87;;;7.88;48.27
70916;BME280;58557;50.982;-3.222;2023-04-25T06:55:50;101140.01;;;8.46;48.16
70916;BME280;58557;50.982;-3.222;2023-04-25T06:58:15;101143.80;;;8.13;47.86
70916;BME280;58557;50.982;-3.222;2023-04-25T07:00:40;101150.04;;;6.41;52.14
70916;BME280;58557;50.982;-3.222;2023-04-25T07:03:06;101148.04;;;6.87;54.10
70916;BME280;58557;50.982;-3.222;2023-04-25T07:05:31;101154.19;;;7.11;54.54
70916;BME280;58557;50.982;-3.222;2023-04-25T07:07:56;101154.09;;;8.20;50.53
70916;BME280;58557;50.982;-3.222;2023-04-25T07:10:22;101154.03;;;9.02;47.95
70916;BME280;58557;50.982;-3.222;2023-04-25T07:12:47;101151.69;;;8.98;46.87
70916;BME280;58557;50.982;-3.222;2023-04-25T07:15:12;101153.35;;;8.78;45.57
70916;BME280;58557;50.982;-3.222;2023-04-25T07:17:38;101156.62;;;9.22;45.12
70916;BME280;58557;50.982;-3.222;2023-04-25T07:20:04;101157.05;;;9.40;46.83
70916;BME280;58557;50.982;-3.222;2023-04-25T07:22:28;101157.38;;;7.84;47.79
70916;BME280;58557;50.982;-3.222;2023-04-25T07:24:54;101164.94;;;6.88;50.53
70916;BME280;58557;50.982;-3.222;2023-04-25T07:27:20;101163.81;;;7.95;50.41
70916;BME280;58557;50.982;-3.222;2023-04-25T07:29:46;101165.13;;;8.43;48.74
70916;BME280;58557;50.982;-3.222;2023-04-25T07:32:11;101164.77;;;8.00;47.47
70916;BME280;58557;50.982;-3.222;2023-04-25T07:34:37;101168.49;;;6.44;51.97
70916;BME280;58557;50.982;-3.222;2023-04-25T07:37:02;101161.83;;;6.74;51.21
70916;BME280;58557;50.982;-3.222;2023-04-25T07:39:27;101164.02;;;6.77;53.97
70916;BME280;58557;50.982;-3.222;2023-04-25T07:41:52;101152.43;;;7.18;52.37
70916;BME280;58557;50.982;-3.222;2023-04-25T07:44:17;101155.49;;;6.98;52.46
70916;BME280;58557;50.982;-3.222;2023-04-25T07:46:43;101152.20;;;8.26;51.11
70916;BME280;58557;50.982;-3.222;2023-04-25T07:49:09;101153.49;;;8.09;49.38
70916;BME280;58557;50.982;-3.222;2023-04-25T07:51:34;101155.54;;;9.07;49.19
70916;BME280;58557;50.982;-3.222;2023-04-25T07:54:00;101152.06;;;10.79;45.59
70916;BME280;58557;50.982;-3.222;2023-04-25T07:56:25;101144.42;;;9.55;45.00
70916;BME280;58557;50.982;-3.222;2023-04-25T07:58:50;101147.25;;;9.61;46.19
70916;BME280;58557;50.982;-3.222;2023-04-25T08:01:16;101148.38;;;10.22;44.90
70916;BME280;58557;50.982;-3.222;2023-04-25T08:03:41;101146.97;;;11.10;41.61
70916;BME280;58557;50.982;-3.222;2023-04-25T08:06:07;101144.07;;;11.57;43.17
70916;BME280;58557;50.982;-3.222;2023-04-25T08:08:32;101143.42;;;11.84;39.51
70916;BME280;58557;50.982;-3.222;2023-04-25T08:10:57;101146.65;;;11.22;41.09
70916;BME280;58557;50.982;-3.222;2023-04-25T08:13:23;101151.51;;;11.12;41.09
70916;BME280;58557;50.982;-3.222;2023-04-25T08:15:49;101146.53;;;11.46;39.49
70916;BME280;58557;50.982;-3.222;2023-04-25T08:18:15;101146.99;;;11.41;38.17
70916;BME280;58557;50.982;-3.222;2023-04-25T08:20:40;101142.82;;;11.62;39.07
70916;BME280;58557;50.982;-3.222;2023-04-25T08:23:06;101146.04;;;11.81;38.32
70916;BME280;58557;50.982;-3.222;2023-04-25T08:25:31;101148.06;;;12.36;38.13
70916;BME280;58557;50.982;-3.222;2023-04-25T08:27:56;101147.26;;;12.09;38.38
70916;BME280;58557;50.982;-3.222;2023-04-25T08:30:22;101150.14;;;9.97;40.40
70916;BME280;58557;50.982;-3.222;2023-04-25T08:32:47;101159.01;;;10.05;41.47
70916;BME280;58557;50.982;-3.222;2023-04-25T08:35:13;101159.08;;;11.83;39.50
70916;BME280;58557;50.982;-3.222;2023-04-25T08:37:39;101160.74;;;12.17;38.13
70916;BME280;58557;50.982;-3.222;2023-04-25T08:40:05;101163.25;;;13.16;37.61
70916;BME280;58557;50.982;-3.222;2023-04-25T08:42:31;101161.01;;;11.30;38.53
70916;BME280;58557;50.982;-3.222;2023-04-25T08:44:55;101159.10;;;11.31;41.12
70916;BME280;58557;50.982;-3.222;2023-04-25T08:47:22;101160.74;;;11.61;39.48
70916;BME280;58557;50.982;-3.222;2023-04-25T08:49:46;101164.36;;;10.77;41.36
70916;BME280;58557;50.982;-3.222;2023-04-25T08:52:13;101167.39;;;10.60;41.05
70916;BME280;58557;50.982;-3.222;2023-04-25T08:54:37;101165.25;;;10.84;39.99
70916;BME280;58557;50.982;-3.222;2023-04-25T08:57:03;101161.77;;;9.92;42.06
70916;BME280;58557;50.982;-3.222;2023-04-25T08:59:28;101169.54;;;10.61;42.80
70916;BME280;58557;50.982;-3.222;2023-04-25T09:01:53;101166.56;;;10.05;41.96
70916;BME280;58557;50.982;-3.222;2023-04-25T09:04:19;101171.36;;;11.48;40.28
70916;BME280;58557;50.982;-3.222;2023-04-25T09:06:44;101164.23;;;11.74;35.67
70916;BME280;58557;50.982;-3.222;2023-04-25T09:09:10;101164.22;;;12.57;38.30
70916;BME280;58557;50.982;-3.222;2023-04-25T09:11:36;101165.22;;;12.61;36.69
70916;BME280;58557;50.982;-3.222;2023-04-25T09:14:11;101165.93;;;12.37;35.29
70916;BME280;58557;50.982;-3.222;2023-04-25T09:16:27;101162.08;;;12.27;33.84
70916;BME280;58557;50.982;-3.222;2023-04-25T09:18:53;101169.80;;;11.46;36.44
70916;BME280;58557;50.982;-3.222;2023-04-25T09:21:22;101168.43;;;11.43;37.08
70916;BME280;58557;50.982;-3.222;2023-04-25T09:23:45;101169.51;;;10.44;38.42
70916;BME280;58557;50.982;-3.222;2023-04-25T09:26:09;101173.61;;;10.58;37.65
70916;BME280;58557;50.982;-3.222;2023-04-25T09:28:34;101168.23;;;9.50;37.28
70916;BME280;58557;50.982;-3.222;2023-04-25T09:31:00;101174.81;;;10.67;35.84
70916;BME280;58557;50.982;-3.222;2023-04-25T09:33:28;101174.75;;;10.43;34.78
70916;BME280;58557;50.982;-3.222;2023-04-25T09:35:52;101178.75;;;10.14;35.42
70916;BME280;58557;50.982;-3.222;2023-04-25T09:38:18;101177.53;;;10.90;35.55
70916;BME280;58557;50.982;-3.222;2023-04-25T09:40:44;101176.13;;;10.68;34.54
70916;BME280;58557;50.982;-3.222;2023-04-25T09:43:10;101178.95;;;10.76;35.15
70916;BME280;58557;50.982;-3.222;2023-04-25T09:45:41;101177.88;;;10.97;36.29
70916;BME280;58557;50.982;-3.222;2023-04-25T09:48:03;101175.86;;;11.67;37.22
70916;BME280;58557;50.982;-3.222;2023-04-25T09:50:25;101170.98;;;12.81;35.71
70916;BME280;58557;50.982;-3.222;2023-04-25T09:55:16;101173.94;;;13.46;32.40
70916;BME280;58557;50.982;-3.222;2023-04-25T09:57:42;101168.40;;;13.62;32.40
70916;BME280;58557;50.982;-3.222;2023-04-25T10:00:09;101169.21;;;12.49;31.18
70916;BME280;58557;50.982;-3.222;2023-04-25T10:02:34;101171.94;;;11.76;30.91
70916;BME280;58557;50.982;-3.222;2023-04-25T10:05:01;101171.00;;;12.22;33.03
70916;BME280;58557;50.982;-3.222;2023-04-25T10:07:27;101187.00;;;10.66;37.09
70916;BME280;58557;50.982;-3.222;2023-04-25T10:09:54;101178.43;;;12.81;35.88
70916;BME280;58557;50.982;-3.222;2023-04-25T10:12:17;101179.81;;;11.76;33.99
70916;BME280;58557;50.982;-3.222;2023-04-25T10:14:43;101183.33;;;13.00;32.76
70916;BME280;58557;50.982;-3.222;2023-04-25T10:17:10;101188.15;;;13.30;32.13
70916;BME280;58557;50.982;-3.222;2023-04-25T10:19:34;101180.95;;;14.00;31.34
70916;BME280;58557;50.982;-3.222;2023-04-25T10:22:05;101183.26;;;14.74;31.01
70916;BME280;58557;50.982;-3.222;2023-04-25T10:24:25;101184.83;;;15.74;29.92
70916;BME280;58557;50.982;-3.222;2023-04-25T10:26:51;101185.50;;;15.01;28.89
70916;BME280;58557;50.982;-3.222;2023-04-25T10:29:21;101181.44;;;14.48;30.59
70916;BME280;58557;50.982;-3.222;2023-04-25T10:31:46;101180.63;;;13.54;30.77
70916;BME280;58557;50.982;-3.222;2023-04-25T10:34:07;101186.83;;;13.46;31.77
70916;BME280;58557;50.982;-3.222;2023-04-25T10:36:34;101192.62;;;13.14;31.14
70916;BME280;58557;50.982;-3.222;2023-04-25T10:39:04;101192.83;;;12.66;31.28
70916;BME280;58557;50.982;-3.222;2023-04-25T10:41:25;101197.34;;;13.09;32.22
70916;BME280;58557;50.982;-3.222;2023-04-25T10:43:59;101192.73;;;13.92;31.55
70916;BME280;58557;50.982;-3.222;2023-04-25T10:46:21;101196.19;;;13.49;34.10
70916;BME280;58557;50.982;-3.222;2023-04-25T10:48:47;101199.16;;;13.24;31.11
70916;BME280;58557;50.982;-3.222;2023-04-25T10:51:08;101196.43;;;13.82;31.10
70916;BME280;58557;50.982;-3.222;2023-04-25T10:53:34;101193.44;;;12.65;30.58
70916;BME280;58557;50.982;-3.222;2023-04-25T10:56:00;101194.71;;;13.46;30.85
70916;BME280;58557;50.982;-3.222;2023-04-25T10:58:26;101187.19;;;13.81;28.63
70916;BME280;58557;50.982;-3.222;2023-04-25T11:00:51;101187.13;;;13.56;28.26
70916;BME280;58557;50.982;-3.222;2023-04-25T11:03:17;101181.70;;;14.22;29.62
70916;BME280;58557;50.982;-3.222;2023-04-25T11:05:45;101183.93;;;13.86;29.69
70916;BME280;58557;50.982;-3.222;2023-04-25T11:08:11;101189.38;;;14.30;28.73
70916;BME280;58557;50.982;-3.222;2023-04-25T11:10:34;101184.75;;;13.37;29.39
70916;BME280;58557;50.982;-3.222;2023-04-25T11:12:59;101186.39;;;14.52;28.72
70916;BME280;58557;50.982;-3.222;2023-04-25T11:15:25;101185.79;;;13.65;28.09
70916;BME280;58557;50.982;-3.222;2023-04-25T11:17:51;101186.32;;;13.70;29.89
70916;BME280;58557;50.982;-3.222;2023-04-25T11:20:16;101193.01;;;12.87;30.74
70916;BME280;58557;50.982;-3.222;2023-04-25T11:22:44;101189.33;;;13.40;29.28
70916;BME280;58557;50.982;-3.222;2023-04-25T11:25:10;101195.03;;;13.76;28.76
70916;BME280;58557;50.982;-3.222;2023-04-25T11:27:34;101185.80;;;14.23;27.85
70916;BME280;58557;50.982;-3.222;2023-04-25T11:30:00;101190.84;;;14.75;27.24
70916;BME280;58557;50.982;-3.222;2023-04-25T11:32:25;101181.49;;;14.32;27.36
70916;BME280;58557;50.982;-3.222;2023-04-25T11:34:52;101179.95;;;13.86;27.72
70916;BME280;58557;50.982;-3.222;2023-04-25T11:37:17;101179.97;;;14.82;28.08
70916;BME280;58557;50.982;-3.222;2023-04-25T11:39:44;101181.78;;;14.47;27.58
70916;BME280;58557;50.982;-3.222;2023-04-25T11:42:08;101176.41;;;13.84;27.87
70916;BME280;58557;50.982;-3.222;2023-04-25T11:44:34;101181.28;;;13.83;28.89
70916;BME280;58557;50.982;-3.222;2023-04-25T11:47:00;101182.96;;;14.15;28.60
70916;BME280;58557;50.982;-3.222;2023-04-25T11:49:30;101180.42;;;14.32;27.90
70916;BME280;58557;50.982;-3.222;2023-04-25T11:51:51;101181.24;;;15.41;27.58
70916;BME280;58557;50.982;-3.222;2023-04-25T11:54:17;101182.03;;;15.33;27.01
70916;BME280;58557;50.982;-3.222;2023-04-25T11:56:44;101180.97;;;15.27;25.61
70916;BME280;58557;50.982;-3.222;2023-04-25T11:59:08;101178.32;;;15.32;25.54
70916;BME280;58557;50.982;-3.222;2023-04-25T12:01:36;101180.43;;;14.77;25.82
70916;BME280;58557;50.982;-3.222;2023-04-25T12:04:10;101177.00;;;15.96;25.01
70916;BME280;58557;50.982;-3.222;2023-04-25T12:06:27;101178.11;;;15.08;26.74
70916;BME280;58557;50.982;-3.222;2023-04-25T12:09:00;101178.14;;;14.53;27.46
70916;BME280;58557;50.982;-3.222;2023-04-25T12:11:21;101177.11;;;14.45;26.64
70916;BME280;58557;50.982;-3.222;2023-04-25T12:13:44;101171.33;;;15.33;25.94
70916;BME280;58557;50.982;-3.222;2023-04-25T12:16:09;101163.81;;;15.62;24.81
70916;BME280;58557;50.982;-3.222;2023-04-25T12:18:35;101166.05;;;15.15;27.51
70916;BME280;58557;50.982;-3.222;2023-04-25T12:21:00;101167.54;;;15.14;27.10
70916;BME280;58557;50.982;-3.222;2023-04-25T12:23:26;101165.94;;;15.75;27.79
70916;BME280;58557;50.982;-3.222;2023-04-25T12:25:52;101168.03;;;15.32;26.25
70916;BME280;58557;50.982;-3.222;2023-04-25T12:28:20;101169.37;;;15.93;26.74
70916;BME280;58557;50.982;-3.222;2023-04-25T12:30:53;101164.33;;;16.24;26.20
70916;BME280;58557;50.982;-3.222;2023-04-25T12:33:09;101159.02;;;16.49;25.91